Terminal Aerodrome Forecast
Issued by NWS

Home | Current Version | Previous Version | Text Only | Print | Product List | Glossary On
Versions: 1 2 3 4 5 6 7 8 9 10 11 12 13 14 15 16 17 18 19
000
FTUS44 KLZK 152300
TAFHRO
TAF
KHRO 152337Z 1600/1624 24006KT P6SM BKN150
     FM160200 25003KT P6SM VCSH BKN040
     FM160600 32003KT P6SM SCT015 OVC025
     FM160900 VRB03KT 3SM BR SCT007 OVC012
     FM161600 07005KT P6SM OVC020
     FM161900 10006KT P6SM SCT020 BKN035=

USA.gov is the U.S. government's official web portal to all federal, state and local government web resources and services.